createdAt,value
2018-12-15T00:00:07.922Z,28.60
2018-12-15T00:02:36.899Z,30.23
2018-12-15T00:05:06.133Z,27.73
2018-12-15T00:07:34.962Z,26.75
2018-12-15T00:10:03.969Z,31.23
2018-12-15T00:12:32.719Z,28.30
2018-12-15T00:15:01.531Z,26.68
2018-12-15T00:17:31.677Z,25.95
2018-12-15T00:20:00.552Z,25.27
2018-12-15T00:22:29.358Z,26.52
2018-12-15T00:24:58.115Z,26.60
2018-12-15T00:27:26.896Z,29.30
2018-12-15T00:29:56.663Z,31.25
2018-12-15T00:32:25.508Z,29.98
2018-12-15T00:34:54.250Z,31.68
2018-12-15T00:37:23.314Z,31.42
2018-12-15T00:39:52.067Z,27.10
2018-12-15T00:42:32.004Z,30.68
2018-12-15T00:45:00.708Z,32.23
2018-12-15T00:47:29.416Z,32.30
2018-12-15T00:49:58.100Z,25.77
2018-12-15T00:52:27.148Z,31.50
2018-12-15T00:54:55.930Z,32.00
2018-12-15T00:57:24.944Z,31.37
2018-12-15T00:59:54.068Z,25.57
2018-12-15T01:02:22.916Z,28.02
2018-12-15T01:04:51.656Z,28.77
2018-12-15T01:07:20.572Z,27.73
2018-12-15T01:09:49.382Z,25.40
2018-12-15T01:12:18.207Z,27.82
2018-12-15T01:14:46.942Z,24.32
2018-12-15T01:17:20.530Z,27.37
2018-12-15T01:19:47.605Z,30.48
2018-12-15T01:22:16.415Z,30.05
2018-12-15T01:24:45.245Z,31.45
2018-12-15T01:27:14.012Z,35.98
2018-12-15T01:29:42.749Z,31.55
2018-12-15T01:32:11.468Z,33.18
2018-12-15T01:34:40.294Z,32.75
2018-12-15T01:37:08.930Z,35.58
2018-12-15T01:39:37.753Z,30.52
2018-12-15T01:42:06.469Z,32.63
2018-12-15T01:44:35.259Z,33.23
2018-12-15T01:47:04.125Z,40.85
2018-12-15T01:49:32.896Z,31.60
2018-12-15T01:52:01.615Z,30.48
2018-12-15T01:54:30.601Z,31.45
2018-12-15T01:56:59.262Z,34.53
2018-12-15T01:59:27.995Z,36.68
2018-12-15T02:01:56.740Z,34.55
2018-12-15T02:04:25.526Z,31.73
2018-12-15T02:06:54.419Z,36.13
2018-12-15T02:09:24.542Z,33.42
2018-12-15T02:11:53.411Z,31.45
2018-12-15T02:14:22.183Z,33.78
2018-12-15T02:16:50.951Z,31.70
2018-12-15T02:19:19.770Z,32.75
2018-12-15T02:21:48.521Z,33.70
2018-12-15T02:24:17.231Z,33.00
2018-12-15T02:26:46.016Z,30.08
2018-12-15T02:29:16.376Z,31.62
2018-12-15T02:31:45.361Z,36.05
2018-12-15T02:34:14.032Z,36.83
2018-12-15T02:36:42.906Z,35.95
2018-12-15T02:39:11.847Z,38.78
2018-12-15T02:41:47.139Z,35.48
2018-12-15T02:44:12.880Z,39.48
2018-12-15T02:46:41.513Z,36.85
2018-12-15T02:49:10.280Z,38.90
2018-12-15T02:51:39.284Z,39.70
2018-12-15T02:54:08.071Z,41.37
2018-12-15T02:56:37.605Z,35.75
2018-12-15T02:59:06.302Z,42.88
2018-12-15T03:01:36.489Z,36.42
2018-12-15T03:04:05.222Z,40.85
2018-12-15T03:06:33.923Z,39.77
2018-12-15T03:09:02.914Z,39.08
2018-12-15T03:11:31.731Z,42.10
2018-12-15T03:14:00.613Z,36.80
2018-12-15T03:16:29.351Z,35.03
2018-12-15T03:19:01.124Z,36.42
2018-12-15T03:21:29.866Z,41.08
2018-12-15T03:23:58.598Z,39.83
2018-12-15T03:26:27.316Z,37.88
2018-12-15T03:28:56.984Z,40.10
2018-12-15T03:31:25.720Z,38.45
2018-12-15T03:33:54.677Z,40.92
2018-12-15T03:36:23.422Z,41.83
2018-12-15T03:38:52.188Z,43.48
2018-12-15T03:41:21.044Z,34.80
2018-12-15T03:43:49.726Z,38.67
2018-12-15T03:46:18.600Z,36.08
2018-12-15T03:48:47.303Z,40.67
2018-12-15T03:51:16.317Z,40.12
2018-12-15T03:53:45.754Z,37.50
2018-12-15T03:56:14.942Z,40.05
2018-12-15T03:58:43.694Z,35.17
2018-12-15T04:01:12.393Z,43.40
2018-12-15T04:03:41.092Z,42.25
2018-12-15T04:06:09.761Z,31.93
2018-12-15T04:08:38.435Z,32.03
2018-12-15T04:11:07.122Z,31.55
2018-12-15T04:13:35.924Z,30.40
2018-12-15T04:16:04.726Z,25.80
2018-12-15T04:18:33.472Z,25.45
2018-12-15T04:21:02.413Z,27.73
2018-12-15T04:23:31.172Z,30.95
2018-12-15T04:25:59.907Z,29.48
2018-12-15T04:28:28.667Z,31.33
2018-12-15T04:31:02.284Z,28.77
2018-12-15T04:33:31.032Z,30.70
2018-12-15T04:36:02.350Z,30.25
2018-12-15T04:38:31.212Z,28.98
2018-12-15T04:40:59.937Z,27.62
2018-12-15T04:43:28.660Z,28.02
2018-12-15T04:45:57.340Z,32.20
2018-12-15T04:48:26.051Z,31.82
2018-12-15T04:50:54.695Z,25.65
2018-12-15T04:53:23.610Z,36.08
2018-12-15T04:55:52.283Z,30.62
2018-12-15T04:58:20.909Z,30.57
2018-12-15T05:00:49.695Z,36.83
2018-12-15T05:03:18.364Z,38.48
2018-12-15T05:05:47.043Z,31.10
2018-12-15T05:08:15.678Z,33.58
2018-12-15T05:10:44.361Z,34.43
2018-12-15T05:13:12.963Z,38.63
2018-12-15T05:15:41.668Z,40.75
2018-12-15T05:18:18.032Z,32.30
2018-12-15T05:20:42.334Z,28.30
2018-12-15T05:23:10.969Z,33.60
2018-12-15T05:25:39.608Z,34.85
2018-12-15T05:28:08.287Z,30.50
2018-12-15T05:30:36.933Z,39.00
2018-12-15T05:33:06.211Z,33.42
2018-12-15T05:35:34.864Z,30.43
2018-12-15T05:38:04.264Z,33.80
2018-12-15T05:40:32.935Z,29.20
2018-12-15T05:43:03.103Z,28.12
2018-12-15T05:45:31.735Z,28.40
2018-12-15T05:48:00.405Z,26.02
2018-12-15T05:50:29.246Z,31.25
2018-12-15T05:52:57.852Z,26.40
2018-12-15T05:55:26.591Z,29.12
2018-12-15T05:57:55.242Z,26.40
2018-12-15T06:00:24.048Z,26.07
2018-12-15T06:02:52.686Z,22.80
2018-12-15T06:05:21.373Z,26.15
2018-12-15T06:07:50.094Z,27.65
2018-12-15T06:10:18.818Z,22.87
2018-12-15T06:12:47.466Z,33.80
2018-12-15T06:15:16.144Z,25.50
2018-12-15T06:17:44.802Z,28.67
2018-12-15T06:20:13.494Z,25.82
2018-12-15T06:22:42.118Z,27.02
2018-12-15T06:25:10.785Z,25.92
2018-12-15T06:27:39.432Z,22.73
2018-12-15T06:30:08.634Z,25.20
2018-12-15T06:32:37.255Z,23.30
2018-12-15T06:35:06.231Z,25.20
2018-12-15T06:37:34.875Z,26.00
2018-12-15T06:40:03.982Z,25.90
2018-12-15T06:42:32.601Z,23.38
2018-12-15T06:45:01.374Z,25.85
2018-12-15T06:47:31.182Z,22.07
2018-12-15T06:49:59.851Z,24.12
2018-12-15T06:52:29.533Z,24.75
2018-12-15T06:54:58.206Z,23.15
2018-12-15T06:57:26.862Z,21.33
2018-12-15T06:59:55.603Z,23.57
2018-12-15T07:02:24.245Z,24.63
2018-12-15T07:04:52.917Z,22.07
2018-12-15T07:07:22.650Z,27.60
2018-12-15T07:09:51.356Z,21.62
2018-12-15T07:12:20.082Z,23.70
2018-12-15T07:14:48.754Z,24.63
2018-12-15T07:17:18.395Z,23.30
2018-12-15T07:19:47.056Z,21.02
2018-12-15T07:22:15.798Z,24.37
2018-12-15T07:24:44.491Z,24.18
2018-12-15T07:29:41.216Z,21.45
2018-12-15T07:32:09.886Z,22.40
2018-12-15T07:34:38.640Z,20.12
2018-12-15T07:37:07.369Z,22.32
2018-12-15T07:39:36.082Z,25.00
2018-12-15T07:42:04.838Z,24.52
2018-12-15T07:44:33.559Z,25.62
2018-12-15T07:47:03.262Z,21.50
2018-12-15T07:49:32.029Z,21.30
2018-12-15T07:52:01.172Z,24.23
2018-12-15T07:54:29.884Z,25.90
2018-12-15T07:56:58.616Z,24.23
2018-12-15T07:59:27.428Z,21.07
2018-12-15T08:01:57.119Z,24.43
2018-12-15T08:04:25.883Z,21.23
2018-12-15T08:06:55.660Z,21.50
2018-12-15T08:09:24.378Z,22.05
2018-12-15T08:11:58.393Z,22.27
2018-12-15T08:14:27.312Z,21.40
2018-12-15T08:16:57.221Z,17.25
2018-12-15T08:19:26.060Z,21.05
2018-12-15T08:21:54.887Z,25.08
2018-12-15T08:24:23.961Z,21.00
2018-12-15T08:26:52.775Z,26.77
2018-12-15T08:29:21.721Z,23.80
2018-12-15T08:31:50.692Z,25.20
2018-12-15T08:34:20.035Z,24.47
2018-12-15T08:36:48.782Z,26.40
2018-12-15T08:39:18.495Z,27.07
2018-12-15T08:41:47.251Z,28.70
2018-12-15T08:44:16.311Z,25.82
2018-12-15T08:46:45.006Z,22.58
2018-12-15T08:49:13.831Z,25.35
2018-12-15T08:51:43.677Z,23.10
2018-12-15T08:54:13.307Z,22.67
2018-12-15T08:56:41.997Z,25.17
2018-12-15T08:59:11.475Z,21.95
2018-12-15T09:01:40.387Z,25.35
2018-12-15T09:04:09.276Z,22.93
2018-12-15T09:06:38.018Z,21.23
2018-12-15T09:09:07.336Z,24.72
2018-12-15T09:11:36.200Z,22.25
2018-12-15T09:14:05.541Z,23.50
2018-12-15T09:16:34.744Z,28.15
2018-12-15T09:19:04.236Z,21.30
2018-12-15T09:21:33.079Z,22.87
2018-12-15T09:24:03.387Z,23.10
2018-12-15T09:26:32.422Z,25.08
2018-12-15T09:29:01.866Z,23.02
2018-12-15T09:31:30.603Z,27.05
2018-12-15T09:33:59.432Z,28.70
2018-12-15T09:36:28.336Z,31.45
2018-12-15T09:38:58.201Z,25.35
2018-12-15T09:41:26.981Z,28.47
2018-12-15T09:43:55.918Z,25.08
2018-12-15T09:46:24.735Z,26.57
2018-12-15T09:48:54.552Z,25.25
2018-12-15T09:51:23.719Z,26.73
2018-12-15T09:53:52.535Z,25.77
2018-12-15T09:56:21.516Z,29.87
2018-12-15T09:58:51.336Z,25.88
2018-12-15T10:04:13.580Z,29.63
2018-12-15T10:09:36.863Z,26.95
2018-12-15T10:23:39.761Z,25.45
2018-12-15T10:29:01.267Z,21.25
2018-12-15T10:31:35.415Z,25.75
2018-12-15T10:34:04.186Z,26.70
2018-12-15T10:36:32.829Z,26.27
2018-12-15T10:39:02.499Z,20.85
2018-12-15T10:41:31.230Z,28.30
2018-12-15T10:44:00.350Z,24.00
2018-12-15T10:46:29.382Z,24.82
2018-12-15T10:48:58.172Z,28.25
2018-12-15T10:51:26.931Z,27.37
2018-12-15T10:53:55.618Z,27.00
2018-12-15T10:56:25.278Z,23.32
2018-12-15T10:58:53.902Z,29.80
2018-12-15T11:04:15.217Z,26.30
2018-12-15T11:06:43.848Z,25.48
2018-12-15T11:09:12.596Z,25.23
2018-12-15T11:11:41.459Z,28.00
2018-12-15T11:14:10.111Z,29.98
2018-12-15T11:16:38.867Z,27.27
2018-12-15T11:19:07.486Z,30.90
2018-12-15T11:21:36.240Z,26.57
2018-12-15T11:24:04.943Z,25.57
2018-12-15T11:26:33.640Z,29.10
2018-12-15T11:29:02.310Z,26.40
2018-12-15T11:31:30.988Z,25.10
2018-12-15T11:33:59.682Z,26.50
2018-12-15T11:36:28.344Z,27.60
2018-12-15T11:38:57.426Z,20.45
2018-12-15T11:41:26.108Z,26.40
2018-12-15T11:43:54.800Z,20.80
2018-12-15T11:46:23.451Z,26.52
2018-12-15T11:48:52.107Z,23.25
2018-12-15T11:51:21.385Z,25.00
2018-12-15T11:53:50.051Z,25.05
2018-12-15T11:56:19.841Z,24.45
2018-12-15T11:58:48.459Z,27.55
2018-12-15T12:04:11.437Z,26.82
2018-12-15T12:06:40.137Z,27.32
2018-12-15T12:09:08.793Z,27.52
2018-12-15T12:11:37.556Z,29.12
2018-12-15T12:14:06.273Z,24.87
2018-12-15T12:16:36.073Z,22.48
2018-12-15T12:19:04.863Z,23.50
2018-12-15T12:21:33.506Z,23.05
2018-12-15T12:24:04.007Z,25.20
2018-12-15T12:26:32.685Z,27.42
2018-12-15T12:29:01.359Z,26.33
2018-12-15T12:31:30.083Z,30.45
2018-12-15T12:33:58.830Z,26.07
2018-12-15T12:36:27.485Z,22.48
2018-12-15T12:38:56.167Z,18.73
2018-12-15T12:41:24.854Z,24.32
2018-12-15T12:43:53.519Z,21.90
2018-12-15T12:46:22.144Z,24.60
2018-12-15T12:48:50.887Z,23.22
2018-12-15T12:51:19.571Z,22.82
2018-12-15T12:53:48.249Z,26.10
2018-12-15T12:56:17.061Z,24.52
2018-12-15T12:58:46.231Z,21.90
2018-12-15T13:04:09.078Z,22.37
2018-12-15T13:06:37.872Z,24.35
2018-12-15T13:09:07.938Z,19.48
2018-12-15T13:11:36.758Z,21.85
2018-12-15T13:14:05.627Z,19.12
2018-12-15T13:16:34.471Z,21.73
2018-12-15T13:19:03.507Z,23.77
2018-12-15T13:21:32.201Z,20.77
2018-12-15T13:24:00.873Z,22.32
2018-12-15T13:26:29.608Z,22.02
2018-12-15T13:28:58.300Z,23.67
2018-12-15T13:31:27.052Z,23.62
2018-12-15T13:33:55.746Z,19.17
2018-12-15T13:36:24.581Z,24.95
2018-12-15T13:38:53.366Z,21.87
2018-12-15T13:41:22.066Z,21.55
2018-12-15T13:43:50.710Z,21.52
2018-12-15T13:46:19.322Z,22.77
2018-12-15T13:48:47.959Z,23.27
2018-12-15T13:51:16.874Z,21.15
2018-12-15T13:53:45.668Z,22.93
2018-12-15T13:56:14.379Z,23.12
2018-12-15T13:58:43.582Z,21.25
2018-12-15T14:04:05.565Z,23.32
2018-12-15T14:06:34.347Z,18.37
2018-12-15T14:09:03.134Z,21.33
2018-12-15T14:11:31.802Z,23.83
2018-12-15T14:14:00.599Z,22.45
2018-12-15T14:16:29.896Z,26.00
2018-12-15T14:18:59.464Z,24.63
2018-12-15T14:21:28.309Z,21.05
2018-12-15T14:23:57.145Z,25.60
2018-12-15T14:26:26.035Z,23.15
2018-12-15T14:28:54.902Z,20.68
2018-12-15T14:31:24.123Z,23.55
2018-12-15T14:33:52.897Z,27.95
2018-12-15T14:36:21.845Z,25.60
2018-12-15T14:38:50.650Z,30.25
2018-12-15T14:41:19.631Z,28.20
2018-12-15T14:43:49.021Z,24.05
2018-12-15T14:46:17.747Z,26.95
2018-12-15T14:48:46.594Z,28.38
2018-12-15T14:51:15.388Z,30.62
2018-12-15T14:53:44.213Z,31.50
2018-12-15T14:56:13.078Z,31.10
2018-12-15T14:58:41.934Z,31.33
2018-12-15T15:04:04.066Z,27.50
2018-12-15T15:06:33.434Z,32.10
2018-12-15T15:09:02.299Z,36.80
2018-12-15T15:11:31.021Z,35.92
2018-12-15T15:13:59.944Z,33.60
2018-12-15T15:16:28.776Z,34.50
2018-12-15T15:18:57.413Z,32.70
2018-12-15T15:21:26.966Z,32.65
2018-12-15T15:23:56.558Z,30.52
2018-12-15T15:26:25.236Z,34.43
2018-12-15T15:28:54.214Z,33.20
2018-12-15T15:31:23.057Z,28.60
2018-12-15T15:33:51.785Z,31.37
2018-12-15T15:36:20.587Z,29.87
2018-12-15T15:38:50.863Z,33.88
2018-12-15T15:41:19.767Z,28.02
2018-12-15T15:43:48.596Z,27.75
2018-12-15T15:46:17.523Z,36.85
2018-12-15T15:48:46.260Z,31.27
2018-12-15T15:51:15.182Z,30.60
2018-12-15T15:53:44.387Z,37.67
2018-12-15T15:56:14.409Z,29.72
2018-12-15T15:58:43.246Z,35.03
2018-12-15T16:04:04.633Z,27.25
2018-12-15T16:06:34.657Z,33.10
2018-12-15T16:09:05.918Z,29.32
2018-12-15T16:11:34.634Z,30.43
2018-12-15T16:14:04.289Z,28.07
2018-12-15T16:16:34.582Z,36.00
2018-12-15T16:19:04.675Z,30.08
2018-12-15T16:21:33.848Z,28.73
2018-12-15T16:24:02.606Z,27.77
2018-12-15T16:26:31.622Z,27.55
2018-12-15T16:29:00.830Z,29.75
2018-12-15T16:31:30.358Z,35.08
2018-12-15T16:34:00.060Z,25.30
2018-12-15T16:36:30.286Z,31.30
2018-12-15T16:39:00.405Z,31.55
2018-12-15T16:41:29.411Z,29.25
2018-12-15T16:43:58.520Z,25.27
2018-12-15T16:46:27.654Z,30.85
2018-12-15T16:48:56.506Z,31.82
2018-12-15T16:51:25.396Z,30.65
2018-12-15T16:53:55.182Z,28.83
2018-12-15T16:56:24.287Z,30.08
2018-12-15T16:58:53.840Z,30.12
2018-12-15T17:04:15.428Z,38.88
2018-12-15T17:06:44.438Z,30.23
2018-12-15T17:09:14.099Z,29.25
2018-12-15T17:11:46.707Z,33.08
2018-12-15T17:14:15.578Z,32.60
2018-12-15T17:16:44.313Z,32.63
2018-12-15T17:19:13.724Z,29.10
2018-12-15T17:21:42.580Z,32.42
2018-12-15T17:24:11.319Z,38.38
2018-12-15T17:26:41.078Z,33.38
2018-12-15T17:29:10.140Z,33.67
2018-12-15T17:31:38.993Z,35.15
2018-12-15T17:34:08.356Z,34.38
2018-12-15T17:36:37.513Z,33.18
2018-12-15T17:39:08.460Z,31.48
2018-12-15T17:41:37.602Z,33.58
2018-12-15T17:44:06.976Z,30.50
2018-12-15T17:46:35.988Z,29.55
2018-12-15T17:49:05.347Z,31.25
2018-12-15T17:51:35.332Z,30.12
2018-12-15T17:54:05.859Z,28.38
2018-12-15T17:56:35.462Z,22.50
2018-12-15T17:59:05.339Z,31.33
2018-12-15T18:04:27.424Z,24.57
2018-12-15T18:06:56.272Z,22.75
2018-12-15T18:09:25.282Z,24.07
2018-12-15T18:11:54.201Z,24.35
2018-12-15T18:14:23.253Z,24.77
2018-12-15T18:16:52.024Z,20.72
2018-12-15T18:19:21.974Z,21.73
2018-12-15T18:21:51.533Z,21.80
2018-12-15T18:24:20.535Z,20.48
2018-12-15T18:26:49.433Z,27.82
2018-12-15T18:29:18.279Z,17.67
2018-12-15T18:31:47.717Z,20.72
2018-12-15T18:34:16.844Z,20.82
2018-12-15T18:36:45.625Z,20.57
2018-12-15T18:39:14.458Z,20.40
2018-12-15T18:41:44.135Z,22.67
2018-12-15T18:44:13.951Z,22.93
2018-12-15T18:46:43.840Z,18.70
2018-12-15T18:49:12.863Z,19.32
2018-12-15T18:51:41.646Z,24.82
2018-12-15T18:54:11.187Z,22.37
2018-12-15T18:56:40.338Z,23.20
2018-12-15T18:59:09.449Z,28.85
2018-12-15T19:04:31.249Z,29.15
2018-12-15T19:07:00.315Z,25.15
2018-12-15T19:09:29.753Z,23.70
2018-12-15T19:11:58.706Z,25.90
2018-12-15T19:14:27.668Z,23.47
2018-12-15T19:16:56.456Z,28.70
2018-12-15T19:19:25.521Z,21.75
2018-12-15T19:21:54.544Z,25.35
2018-12-15T19:24:23.825Z,25.12
2018-12-15T19:26:52.807Z,22.15
2018-12-15T19:29:22.647Z,22.95
2018-12-15T19:31:51.628Z,20.52
2018-12-15T19:34:21.368Z,20.70
2018-12-15T19:36:53.594Z,22.65
2018-12-15T19:39:23.335Z,24.75
2018-12-15T19:41:52.336Z,22.05
2018-12-15T19:44:22.214Z,20.62
2018-12-15T19:46:51.036Z,25.43
2018-12-15T19:49:19.741Z,26.30
2018-12-15T19:51:48.460Z,24.90
2018-12-15T19:54:17.449Z,27.05
2018-12-15T19:56:46.376Z,23.75
2018-12-15T19:59:15.423Z,27.70
2018-12-15T20:04:36.863Z,24.35
2018-12-15T20:07:05.788Z,31.40
2018-12-15T20:09:35.487Z,27.73
2018-12-15T20:12:04.539Z,25.82
2018-12-15T20:14:33.595Z,25.88
2018-12-15T20:17:02.359Z,31.45
2018-12-15T20:19:31.162Z,27.05
2018-12-15T20:22:00.345Z,22.90
2018-12-15T20:24:30.352Z,30.88
2018-12-15T20:26:59.710Z,26.70
2018-12-15T20:29:29.915Z,23.65
2018-12-15T20:31:59.101Z,27.55
2018-12-15T20:34:28.982Z,34.95
2018-12-15T20:36:57.859Z,26.33
2018-12-15T20:39:26.651Z,31.85
2018-12-15T20:41:55.371Z,28.17
2018-12-15T20:44:24.258Z,30.60
2018-12-15T20:46:54.105Z,31.73
2018-12-15T20:49:22.803Z,30.72
2018-12-15T20:51:51.440Z,33.05
2018-12-15T20:54:20.636Z,36.25
2018-12-15T20:56:49.568Z,35.55
2018-12-15T20:59:18.429Z,33.53
2018-12-15T21:04:40.238Z,39.85
2018-12-15T21:07:09.027Z,40.90
2018-12-15T21:09:37.908Z,39.03
2018-12-15T21:12:06.770Z,39.15
2018-12-15T21:14:35.561Z,39.50
2018-12-15T21:17:04.479Z,39.67
2018-12-15T21:19:33.342Z,40.58
2018-12-15T21:22:02.576Z,38.67
2018-12-15T21:24:31.975Z,40.85
2018-12-15T21:27:00.697Z,40.88
2018-12-15T21:29:29.387Z,46.10
2018-12-15T21:31:58.463Z,43.73
2018-12-15T21:34:27.495Z,46.58
2018-12-15T21:36:56.325Z,45.05
2018-12-15T21:39:25.564Z,49.38
2018-12-15T21:41:54.510Z,48.40
2018-12-15T21:44:23.789Z,44.48
2018-12-15T21:46:52.663Z,47.75
2018-12-15T21:49:21.424Z,43.87
2018-12-15T21:51:56.090Z,45.48
2018-12-15T21:54:20.972Z,47.17
2018-12-15T21:56:49.720Z,45.23
2018-12-15T21:59:18.840Z,46.28
2018-12-15T22:04:41.117Z,47.53
2018-12-15T22:07:10.022Z,45.88
2018-12-15T22:09:38.958Z,48.60
2018-12-15T22:12:07.799Z,43.73
2018-12-15T22:14:36.855Z,45.15
2018-12-15T22:17:06.030Z,44.35
2018-12-15T22:19:35.788Z,46.28
2018-12-15T22:22:04.593Z,42.85
2018-12-15T22:24:33.476Z,39.33
2018-12-15T22:27:03.761Z,45.83
2018-12-15T22:29:32.726Z,39.18
2018-12-15T22:32:01.809Z,45.12
2018-12-15T22:34:30.647Z,40.85
2018-12-15T22:36:59.344Z,43.13
2018-12-15T22:39:28.121Z,34.05
2018-12-15T22:41:56.931Z,37.65
2018-12-15T22:44:25.771Z,41.92
2018-12-15T22:46:54.577Z,44.77
2018-12-15T22:49:23.624Z,40.43
2018-12-15T22:51:52.411Z,48.48
2018-12-15T22:54:21.367Z,36.35
2018-12-15T22:56:50.017Z,41.08
2018-12-15T22:59:19.442Z,44.83
2018-12-15T23:04:40.843Z,35.50
2018-12-15T23:07:10.556Z,47.60
2018-12-15T23:09:39.372Z,40.80
2018-12-15T23:12:08.410Z,40.12
2018-12-15T23:14:37.064Z,40.35
2018-12-15T23:17:05.872Z,39.38
2018-12-15T23:19:34.555Z,40.80
2018-12-15T23:22:03.317Z,36.98
2018-12-15T23:24:32.212Z,38.08
2018-12-15T23:27:01.422Z,41.70
2018-12-15T23:29:30.266Z,33.00
2018-12-15T23:31:58.902Z,34.90
2018-12-15T23:34:27.608Z,36.05
2018-12-15T23:36:56.420Z,38.70
2018-12-15T23:39:25.155Z,55.35
2018-12-15T23:41:53.857Z,33.08
2018-12-15T23:47:00.277Z,36.77
2018-12-15T23:49:29.125Z,38.83
2018-12-15T23:51:57.829Z,29.00
2018-12-15T23:54:26.599Z,33.15
2018-12-15T23:56:55.475Z,31.30
2018-12-15T23:59:24.199Z,34.35
